»·PEaware :: N9401L KDCA-KJFK

N9401L :: KDCA-KJFK

FLIGHT INFORMATION

Flight Status: Arrived
Operator: Privately registered:
United States
More flights under this callsign
Pilot: Juan D. (11620)
Aircraft: ECLIPSE 500
(EA50)
More flights by this aircraft type
Origin: KDCA Ronald Reagan Washington Natl
United States
Destination: KJFK Kennedy Intl
United States
More flights between these airports :: More routes between these airports
Route: PALEO DONIL PANZE ZIGGI
File this flight plan on PilotEdge
Remarks:
Altitude:
(Current/Filed)
17,000ft
Speed:
(Current/Filed)
250kts
Departed: 26-Jan-19 06:35 AM
Arrived: 26-Jan-19 07:29 AM
Distance/Time
Traveled:
184nm/0:54
Distance/Time
To Go:
Arrived

Flight Plot

Page will automatically refresh every two minutes.

Flight plan parsing failed; only flown route is shown


Map Options




Map Legend


Flown Route
Filed Route
Departure Airport
Arrival Airport
Navaid (VOR, NDB)
Fix

Horizontal Profiles

Position Reports

Time Latitude Longitude Heading Altitude Ground
Speed
26-Jan-19 06:32 38.841557 -77.041205 26 17ft 0kts
26-Jan-19 06:33 38.841557 -77.041205 26 17ft 0kts
26-Jan-19 06:34 38.843184 -77.040277 25 17ft 53kts
26-Jan-19 06:35 38.860512 -77.029407 25 677ft 144kts
26-Jan-19 06:36 38.886936 -77.012868 25 2427ft 174kts
26-Jan-19 06:37 38.912593 -76.992403 57 4403ft 183kts
26-Jan-19 06:38 38.910320 -76.946472 97 6232ft 205kts
26-Jan-19 06:39 38.904303 -76.894465 89 7996ft 219kts
26-Jan-19 06:40 38.908435 -76.835637 77 9743ft 233kts
26-Jan-19 06:41 38.922856 -76.763378 73 11705ft 249kts
26-Jan-19 06:42 38.943567 -76.681247 72 13747ft 263kts
26-Jan-19 06:43 38.968201 -76.590170 71 15742ft 276kts
26-Jan-19 06:44 38.999107 -76.477695 71 17016ft 322kts
26-Jan-19 06:45 39.030219 -76.336430 90 17020ft 367kts
26-Jan-19 06:46 39.038274 -76.175229 90 17024ft 368kts
26-Jan-19 06:47 39.045646 -76.025066 90 17030ft 368kts
26-Jan-19 06:48 39.052611 -75.871439 90 17030ft 368kts
26-Jan-19 06:49 39.059780 -75.708312 90 17019ft 368kts
26-Jan-19 06:50 39.065618 -75.546057 91 17008ft 367kts
26-Jan-19 06:51 39.073039 -75.380036 90 17010ft 368kts
26-Jan-19 06:52 39.119202 -75.223284 53 16997ft 371kts
26-Jan-19 06:53 39.184188 -75.099986 54 16998ft 371kts
26-Jan-19 06:54 39.242016 -74.989325 54 17001ft 372kts
26-Jan-19 06:55 39.299769 -74.878331 54 17003ft 374kts
26-Jan-19 06:56 39.341280 -74.798292 54 17004ft 374kts
26-Jan-19 06:57 39.389693 -74.704706 54 17008ft 374kts
26-Jan-19 06:58 39.447101 -74.593372 54 17013ft 374kts
26-Jan-19 06:59 39.506374 -74.483136 52 17015ft 374kts
26-Jan-19 07:01 39.566061 -74.372669 52 17018ft 373kts
26-Jan-19 07:02 39.625356 -74.262549 53 17012ft 373kts
26-Jan-19 07:03 39.690668 -74.162001 14 17011ft 355kts
26-Jan-19 07:04 39.782321 -74.124393 8 16991ft 324kts
26-Jan-19 07:05 39.860732 -74.092246 6 15483ft 266kts
26-Jan-19 07:06 39.925975 -74.065499 5 13982ft 233kts
26-Jan-19 07:07 39.985254 -74.041182 5 12501ft 220kts
26-Jan-19 07:08 40.041715 -74.017890 5 11026ft 209kts
26-Jan-19 07:09 40.090549 -73.976531 27 9537ft 207kts
26-Jan-19 07:10 40.134950 -73.933405 27 8040ft 192kts
26-Jan-19 07:11 40.176159 -73.893451 29 6551ft 179kts
26-Jan-19 07:12 40.215138 -73.855616 31 5059ft 171kts
26-Jan-19 07:13 40.252945 -73.818832 33 3558ft 168kts
26-Jan-19 07:14 40.289358 -73.783271 34 2495ft 145kts
26-Jan-19 07:15 40.320366 -73.748324 55 2501ft 164kts
26-Jan-19 07:16 40.344284 -73.698662 55 2039ft 160kts
26-Jan-19 07:17 40.369222 -73.646825 55 2000ft 183kts
26-Jan-19 07:18 40.395324 -73.592846 49 1992ft 179kts
26-Jan-19 07:19 40.440256 -73.576340 9 1992ft 176kts
26-Jan-19 07:20 40.488080 -73.564215 9 1991ft 176kts
26-Jan-19 07:21 40.532863 -73.563071 311 1851ft 173kts
26-Jan-19 07:21 40.533234 -73.563635 308 1846ft 173kts
26-Jan-19 07:24 40.591207 -73.690716 300 1275ft 117kts
26-Jan-19 07:25 40.603673 -73.718149 300 873ft 129kts
26-Jan-19 07:25 40.613240 -73.739215 299 635ft 113kts
26-Jan-19 07:26 40.622636 -73.760110 300 398ft 101kts
26-Jan-19 07:28 40.633105 -73.783130 300 33ft 84kts
26-Jan-19 07:28 40.637595 -73.792781 308 16ft 18kts
26-Jan-19 07:29 40.638171 -73.791517 91 16ft 0kts
26-Jan-19 07:30 40.638171 -73.791517 91 16ft 0kts
26-Jan-19 07:31 40.638171 -73.791517 91 16ft 0kts
26-Jan-19 07:32 40.615757 -73.744865 299 553ft 111kts
26-Jan-19 07:33 40.635822 -73.789041 299 16ft 67kts
26-Jan-19 07:34 40.638171 -73.791517 91 16ft 0kts
26-Jan-19 07:35 40.638171 -73.791517 91 16ft 0kts

Navigation Log

Ident Type
Flight plan parsing failed, navigation log unavailable